Terminal Aerodrome Forecast
Issued by NWS

Home | Current Version | Previous Version | Text Only | Print | Product List | Glossary On
Versions: 1 2 3 4 5 6 7 8 9 10 11 12
000
FTUS46 KHNX 261720
TAFMCE
TAF
KMCE 261720Z 2618/2718 14006KT P6SM OVC100
     FM270600 VRB04KT P6SM OVC050 PROB30 2706/2712 P6SM -RA OVC030
     FM271200 33005KT 5SM HZ OVC050 PROB30 2712/2715 5SM -RA OVC025
     FM271500 32003KT 4SM BR OVC040 PROB30 2715/2718 4SM -RA OVC025=

USA.gov is the U.S. government's official web portal to all federal, state and local government web resources and services.